sensor_id;sensor_type;location;lat;lon;timestamp;P1;durP1;ratioP1;P2;durP2;ratioP2
46014;SDS011;36844;51.898;-0.874;2023-11-21T00:00:30;2.58;;;1.60;;
46014;SDS011;36844;51.898;-0.874;2023-11-21T00:02:56;2.92;;;1.33;;
46014;SDS011;36844;51.898;-0.874;2023-11-21T00:05:22;4.90;;;2.08;;
46014;SDS011;36844;51.898;-0.874;2023-11-21T00:07:48;9.43;;;2.25;;
46014;SDS011;36844;51.898;-0.874;2023-11-21T00:10:14;3.78;;;0.90;;
46014;SDS011;36844;51.898;-0.874;2023-11-21T00:12:39;4.38;;;1.58;;
46014;SDS011;36844;51.898;-0.874;2023-11-21T00:15:07;3.03;;;1.35;;
46014;SDS011;36844;51.898;-0.874;2023-11-21T00:17:36;4.28;;;1.13;;
46014;SDS011;36844;51.898;-0.874;2023-11-21T00:20:05;3.88;;;1.23;;
46014;SDS011;36844;51.898;-0.874;2023-11-21T00:22:32;1.55;;;0.90;;
46014;SDS011;36844;51.898;-0.874;2023-11-21T00:25:00;2.65;;;1.38;;
46014;SDS011;36844;51.898;-0.874;2023-11-21T00:27:26;2.30;;;1.10;;
46014;SDS011;36844;51.898;-0.874;2023-11-21T00:29:51;2.33;;;1.20;;
46014;SDS011;36844;51.898;-0.874;2023-11-21T00:32:17;3.95;;;1.63;;
46014;SDS011;36844;51.898;-0.874;2023-11-21T00:34:42;2.28;;;1.40;;
46014;SDS011;36844;51.898;-0.874;2023-11-21T00:37:07;1.75;;;1.02;;
46014;SDS011;36844;51.898;-0.874;2023-11-21T00:39:33;2.13;;;1.40;;
46014;SDS011;36844;51.898;-0.874;2023-11-21T00:42:00;1.65;;;1.13;;
46014;SDS011;36844;51.898;-0.874;2023-11-21T00:44:25;2.65;;;1.35;;
46014;SDS011;36844;51.898;-0.874;2023-11-21T00:46:51;2.20;;;1.20;;
46014;SDS011;36844;51.898;-0.874;2023-11-21T00:49:16;2.35;;;1.05;;
46014;SDS011;36844;51.898;-0.874;2023-11-21T00:51:41;2.60;;;1.40;;
46014;SDS011;36844;51.898;-0.874;2023-11-21T00:54:07;2.22;;;1.05;;
46014;SDS011;36844;51.898;-0.874;2023-11-21T00:56:32;1.33;;;0.95;;
46014;SDS011;36844;51.898;-0.874;2023-11-21T00:58:58;1.85;;;1.00;;
46014;SDS011;36844;51.898;-0.874;2023-11-21T01:01:24;1.48;;;1.02;;
46014;SDS011;36844;51.898;-0.874;2023-11-21T01:03:50;2.85;;;0.85;;
46014;SDS011;36844;51.898;-0.874;2023-11-21T01:06:15;3.25;;;1.30;;
46014;SDS011;36844;51.898;-0.874;2023-11-21T01:08:41;2.03;;;1.10;;
46014;SDS011;36844;51.898;-0.874;2023-11-21T01:11:06;3.88;;;1.77;;
46014;SDS011;36844;51.898;-0.874;2023-11-21T01:13:33;2.60;;;1.25;;
46014;SDS011;36844;51.898;-0.874;2023-11-21T01:16:00;1.90;;;1.20;;
46014;SDS011;36844;51.898;-0.874;2023-11-21T01:18:25;1.58;;;0.90;;
46014;SDS011;36844;51.898;-0.874;2023-11-21T01:20:51;1.70;;;0.95;;
46014;SDS011;36844;51.898;-0.874;2023-11-21T01:23:18;1.42;;;0.85;;
46014;SDS011;36844;51.898;-0.874;2023-11-21T01:25:44;0.93;;;0.60;;
46014;SDS011;36844;51.898;-0.874;2023-11-21T01:28:10;1.15;;;0.90;;
46014;SDS011;36844;51.898;-0.874;2023-11-21T01:30:35;2.15;;;1.13;;
46014;SDS011;36844;51.898;-0.874;2023-11-21T01:33:00;1.20;;;0.80;;
46014;SDS011;36844;51.898;-0.874;2023-11-21T01:35:26;1.23;;;0.77;;
46014;SDS011;36844;51.898;-0.874;2023-11-21T01:37:51;2.25;;;1.05;;
46014;SDS011;36844;51.898;-0.874;2023-11-21T01:40:16;1.50;;;1.15;;
46014;SDS011;36844;51.898;-0.874;2023-11-21T01:42:42;1.20;;;0.75;;
46014;SDS011;36844;51.898;-0.874;2023-11-21T01:45:12;1.17;;;0.75;;
46014;SDS011;36844;51.898;-0.874;2023-11-21T01:47:38;1.45;;;0.98;;
46014;SDS011;36844;51.898;-0.874;2023-11-21T01:50:06;1.65;;;1.05;;
46014;SDS011;36844;51.898;-0.874;2023-11-21T01:52:33;2.20;;;1.40;;
46014;SDS011;36844;51.898;-0.874;2023-11-21T01:55:00;1.50;;;1.35;;
46014;SDS011;36844;51.898;-0.874;2023-11-21T01:57:25;1.67;;;1.08;;
46014;SDS011;36844;51.898;-0.874;2023-11-21T01:59:51;1.25;;;0.70;;
46014;SDS011;36844;51.898;-0.874;2023-11-21T02:02:19;2.17;;;0.88;;
46014;SDS011;36844;51.898;-0.874;2023-11-21T02:04:45;1.25;;;0.73;;
46014;SDS011;36844;51.898;-0.874;2023-11-21T02:07:10;1.33;;;0.85;;
46014;SDS011;36844;51.898;-0.874;2023-11-21T02:09:36;1.65;;;1.08;;
46014;SDS011;36844;51.898;-0.874;2023-11-21T02:12:07;1.75;;;0.80;;
46014;SDS011;36844;51.898;-0.874;2023-11-21T02:14:35;1.77;;;1.10;;
46014;SDS011;36844;51.898;-0.874;2023-11-21T02:17:01;0.73;;;0.60;;
46014;SDS011;36844;51.898;-0.874;2023-11-21T02:19:28;1.10;;;1.00;;
46014;SDS011;36844;51.898;-0.874;2023-11-21T02:21:54;1.02;;;0.65;;
46014;SDS011;36844;51.898;-0.874;2023-11-21T02:24:24;1.42;;;1.05;;
46014;SDS011;36844;51.898;-0.874;2023-11-21T02:26:50;1.00;;;0.60;;
46014;SDS011;36844;51.898;-0.874;2023-11-21T02:29:17;1.15;;;0.70;;
46014;SDS011;36844;51.898;-0.874;2023-11-21T02:31:43;1.27;;;0.63;;
46014;SDS011;36844;51.898;-0.874;2023-11-21T02:34:15;0.82;;;0.63;;
46014;SDS011;36844;51.898;-0.874;2023-11-21T02:36:41;0.93;;;0.65;;
46014;SDS011;36844;51.898;-0.874;2023-11-21T02:39:07;0.80;;;0.70;;
46014;SDS011;36844;51.898;-0.874;2023-11-21T02:41:33;1.23;;;0.70;;
46014;SDS011;36844;51.898;-0.874;2023-11-21T02:43:59;1.40;;;0.70;;
46014;SDS011;36844;51.898;-0.874;2023-11-21T02:46:25;1.48;;;0.57;;
46014;SDS011;36844;51.898;-0.874;2023-11-21T02:48:50;1.30;;;1.00;;
46014;SDS011;36844;51.898;-0.874;2023-11-21T02:51:16;1.98;;;0.73;;
46014;SDS011;36844;51.898;-0.874;2023-11-21T02:53:41;0.75;;;0.65;;
46014;SDS011;36844;51.898;-0.874;2023-11-21T02:56:07;1.15;;;0.60;;
46014;SDS011;36844;51.898;-0.874;2023-11-21T02:58:32;1.92;;;0.68;;
46014;SDS011;36844;51.898;-0.874;2023-11-21T03:00:57;6.72;;;0.93;;
46014;SDS011;36844;51.898;-0.874;2023-11-21T03:03:23;1.25;;;0.57;;
46014;SDS011;36844;51.898;-0.874;2023-11-21T03:05:49;1.27;;;0.52;;
46014;SDS011;36844;51.898;-0.874;2023-11-21T03:08:14;1.33;;;0.73;;
46014;SDS011;36844;51.898;-0.874;2023-11-21T03:10:40;2.03;;;0.52;;
46014;SDS011;36844;51.898;-0.874;2023-11-21T03:13:05;1.65;;;0.68;;
46014;SDS011;36844;51.898;-0.874;2023-11-21T03:15:30;1.02;;;0.55;;
46014;SDS011;36844;51.898;-0.874;2023-11-21T03:17:57;1.35;;;0.90;;
46014;SDS011;36844;51.898;-0.874;2023-11-21T03:20:23;0.50;;;0.50;;
46014;SDS011;36844;51.898;-0.874;2023-11-21T03:22:48;0.50;;;0.50;;
46014;SDS011;36844;51.898;-0.874;2023-11-21T03:25:15;0.43;;;0.43;;
46014;SDS011;36844;51.898;-0.874;2023-11-21T03:27:42;1.77;;;0.73;;
46014;SDS011;36844;51.898;-0.874;2023-11-21T03:30:09;0.60;;;0.40;;
46014;SDS011;36844;51.898;-0.874;2023-11-21T03:32:36;1.23;;;0.60;;
46014;SDS011;36844;51.898;-0.874;2023-11-21T03:35:01;1.08;;;0.52;;
46014;SDS011;36844;51.898;-0.874;2023-11-21T03:37:27;0.63;;;0.50;;
46014;SDS011;36844;51.898;-0.874;2023-11-21T03:39:53;1.75;;;0.60;;
46014;SDS011;36844;51.898;-0.874;2023-11-21T03:42:20;1.40;;;0.43;;
46014;SDS011;36844;51.898;-0.874;2023-11-21T03:44:45;1.15;;;0.35;;
46014;SDS011;36844;51.898;-0.874;2023-11-21T03:47:11;0.93;;;0.57;;
46014;SDS011;36844;51.898;-0.874;2023-11-21T03:49:36;1.10;;;0.60;;
46014;SDS011;36844;51.898;-0.874;2023-11-21T03:52:02;1.23;;;0.68;;
46014;SDS011;36844;51.898;-0.874;2023-11-21T03:54:28;0.40;;;0.40;;
46014;SDS011;36844;51.898;-0.874;2023-11-21T03:56:53;1.17;;;0.60;;
46014;SDS011;36844;51.898;-0.874;2023-11-21T03:59:18;1.13;;;0.50;;
46014;SDS011;36844;51.898;-0.874;2023-11-21T04:01:44;0.30;;;0.20;;
46014;SDS011;36844;51.898;-0.874;2023-11-21T04:04:09;1.33;;;0.52;;
46014;SDS011;36844;51.898;-0.874;2023-11-21T04:06:35;0.82;;;0.52;;
46014;SDS011;36844;51.898;-0.874;2023-11-21T04:09:02;0.50;;;0.40;;
46014;SDS011;36844;51.898;-0.874;2023-11-21T04:11:29;0.95;;;0.35;;
46014;SDS011;36844;51.898;-0.874;2023-11-21T04:13:55;0.80;;;0.63;;
46014;SDS011;36844;51.898;-0.874;2023-11-21T04:16:20;0.88;;;0.65;;
46014;SDS011;36844;51.898;-0.874;2023-11-21T04:18:45;0.40;;;0.40;;
46014;SDS011;36844;51.898;-0.874;2023-11-21T04:21:10;1.73;;;0.95;;
46014;SDS011;36844;51.898;-0.874;2023-11-21T04:23:36;0.98;;;0.65;;
46014;SDS011;36844;51.898;-0.874;2023-11-21T04:26:01;0.88;;;0.55;;
46014;SDS011;36844;51.898;-0.874;2023-11-21T04:28:27;0.60;;;0.40;;
46014;SDS011;36844;51.898;-0.874;2023-11-21T04:30:52;2.30;;;0.50;;
46014;SDS011;36844;51.898;-0.874;2023-11-21T04:33:18;0.47;;;0.40;;
46014;SDS011;36844;51.898;-0.874;2023-11-21T04:35:43;0.60;;;0.40;;
46014;SDS011;36844;51.898;-0.874;2023-11-21T04:38:09;0.35;;;0.35;;
46014;SDS011;36844;51.898;-0.874;2023-11-21T04:40:34;0.52;;;0.28;;
46014;SDS011;36844;51.898;-0.874;2023-11-21T04:42:59;0.50;;;0.40;;
46014;SDS011;36844;51.898;-0.874;2023-11-21T04:45:25;0.77;;;0.28;;
46014;SDS011;36844;51.898;-0.874;2023-11-21T04:47:50;0.60;;;0.40;;
46014;SDS011;36844;51.898;-0.874;2023-11-21T04:50:16;1.10;;;0.63;;
46014;SDS011;36844;51.898;-0.874;2023-11-21T04:52:41;0.57;;;0.30;;
46014;SDS011;36844;51.898;-0.874;2023-11-21T04:55:06;0.40;;;0.40;;
46014;SDS011;36844;51.898;-0.874;2023-11-21T04:57:35;1.60;;;0.52;;
46014;SDS011;36844;51.898;-0.874;2023-11-21T05:00:03;0.68;;;0.52;;
46014;SDS011;36844;51.898;-0.874;2023-11-21T05:02:31;1.25;;;0.90;;
46014;SDS011;36844;51.898;-0.874;2023-11-21T05:05:03;0.40;;;0.35;;
46014;SDS011;36844;51.898;-0.874;2023-11-21T05:07:30;0.22;;;0.22;;
46014;SDS011;36844;51.898;-0.874;2023-11-21T05:09:57;0.45;;;0.35;;
46014;SDS011;36844;51.898;-0.874;2023-11-21T05:12:24;1.02;;;0.63;;
46014;SDS011;36844;51.898;-0.874;2023-11-21T05:14:50;2.85;;;0.40;;
46014;SDS011;36844;51.898;-0.874;2023-11-21T05:17:16;0.45;;;0.45;;
46014;SDS011;36844;51.898;-0.874;2023-11-21T05:19:41;0.60;;;0.40;;
46014;SDS011;36844;51.898;-0.874;2023-11-21T05:22:06;2.28;;;0.45;;
46014;SDS011;36844;51.898;-0.874;2023-11-21T05:24:33;2.58;;;0.35;;
46014;SDS011;36844;51.898;-0.874;2023-11-21T05:26:58;1.27;;;0.50;;
46014;SDS011;36844;51.898;-0.874;2023-11-21T05:29:24;1.00;;;0.43;;
46014;SDS011;36844;51.898;-0.874;2023-11-21T05:31:50;0.20;;;0.20;;
46014;SDS011;36844;51.898;-0.874;2023-11-21T05:34:16;0.30;;;0.30;;
46014;SDS011;36844;51.898;-0.874;2023-11-21T05:36:42;0.57;;;0.40;;
46014;SDS011;36844;51.898;-0.874;2023-11-21T05:39:08;0.50;;;0.25;;
46014;SDS011;36844;51.898;-0.874;2023-11-21T05:41:36;0.73;;;0.60;;
46014;SDS011;36844;51.898;-0.874;2023-11-21T05:44:01;0.77;;;0.40;;
46014;SDS011;36844;51.898;-0.874;2023-11-21T05:46:27;0.60;;;0.40;;
46014;SDS011;36844;51.898;-0.874;2023-11-21T05:48:52;0.20;;;0.20;;
46014;SDS011;36844;51.898;-0.874;2023-11-21T05:51:17;1.25;;;0.40;;
46014;SDS011;36844;51.898;-0.874;2023-11-21T05:53:43;0.43;;;0.25;;
46014;SDS011;36844;51.898;-0.874;2023-11-21T05:56:08;1.08;;;0.40;;
46014;SDS011;36844;51.898;-0.874;2023-11-21T05:58:33;0.40;;;0.30;;
46014;SDS011;36844;51.898;-0.874;2023-11-21T06:00:59;0.47;;;0.30;;
46014;SDS011;36844;51.898;-0.874;2023-11-21T06:03:24;0.20;;;0.20;;
46014;SDS011;36844;51.898;-0.874;2023-11-21T06:05:50;0.50;;;0.30;;
46014;SDS011;36844;51.898;-0.874;2023-11-21T06:08:15;0.30;;;0.15;;
46014;SDS011;36844;51.898;-0.874;2023-11-21T06:10:42;1.15;;;0.47;;
46014;SDS011;36844;51.898;-0.874;2023-11-21T06:13:08;0.43;;;0.30;;
46014;SDS011;36844;51.898;-0.874;2023-11-21T06:15:35;0.32;;;0.30;;
46014;SDS011;36844;51.898;-0.874;2023-11-21T06:18:00;0.55;;;0.25;;
46014;SDS011;36844;51.898;-0.874;2023-11-21T06:20:26;0.98;;;0.30;;
46014;SDS011;36844;51.898;-0.874;2023-11-21T06:22:52;0.47;;;0.32;;
46014;SDS011;36844;51.898;-0.874;2023-11-21T06:25:18;0.68;;;0.40;;
46014;SDS011;36844;51.898;-0.874;2023-11-21T06:27:44;0.52;;;0.50;;
46014;SDS011;36844;51.898;-0.874;2023-11-21T06:30:11;0.32;;;0.30;;
46014;SDS011;36844;51.898;-0.874;2023-11-21T06:32:38;0.30;;;0.30;;
46014;SDS011;36844;51.898;-0.874;2023-11-21T06:35:05;0.93;;;0.50;;
46014;SDS011;36844;51.898;-0.874;2023-11-21T06:37:31;1.02;;;0.50;;
46014;SDS011;36844;51.898;-0.874;2023-11-21T06:39:57;0.63;;;0.30;;
46014;SDS011;36844;51.898;-0.874;2023-11-21T06:42:23;0.20;;;0.20;;
46014;SDS011;36844;51.898;-0.874;2023-11-21T06:44:49;0.10;;;0.10;;
46014;SDS011;36844;51.898;-0.874;2023-11-21T06:47:17;0.82;;;0.28;;
46014;SDS011;36844;51.898;-0.874;2023-11-21T06:49:42;0.70;;;0.20;;
46014;SDS011;36844;51.898;-0.874;2023-11-21T06:52:08;1.08;;;0.30;;
46014;SDS011;36844;51.898;-0.874;2023-11-21T06:54:33;0.70;;;0.47;;
46014;SDS011;36844;51.898;-0.874;2023-11-21T06:56:59;0.32;;;0.25;;
46014;SDS011;36844;51.898;-0.874;2023-11-21T06:59:25;0.25;;;0.20;;
46014;SDS011;36844;51.898;-0.874;2023-11-21T07:01:50;0.32;;;0.20;;
46014;SDS011;36844;51.898;-0.874;2023-11-21T07:04:16;0.63;;;0.20;;
46014;SDS011;36844;51.898;-0.874;2023-11-21T07:06:41;0.20;;;0.10;;
46014;SDS011;36844;51.898;-0.874;2023-11-21T07:09:08;0.47;;;0.20;;
46014;SDS011;36844;51.898;-0.874;2023-11-21T07:11:34;0.75;;;0.30;;
46014;SDS011;36844;51.898;-0.874;2023-11-21T07:14:00;1.70;;;0.20;;
46014;SDS011;36844;51.898;-0.874;2023-11-21T07:16:32;3.45;;;0.40;;
46014;SDS011;36844;51.898;-0.874;2023-11-21T07:18:59;0.65;;;0.35;;
46014;SDS011;36844;51.898;-0.874;2023-11-21T07:21:25;0.63;;;0.30;;
46014;SDS011;36844;51.898;-0.874;2023-11-21T07:23:50;0.32;;;0.30;;
46014;SDS011;36844;51.898;-0.874;2023-11-21T07:26:15;1.67;;;0.60;;
46014;SDS011;36844;51.898;-0.874;2023-11-21T07:28:41;3.25;;;1.45;;
46014;SDS011;36844;51.898;-0.874;2023-11-21T07:31:06;3.85;;;1.30;;
46014;SDS011;36844;51.898;-0.874;2023-11-21T07:33:31;4.78;;;2.42;;
46014;SDS011;36844;51.898;-0.874;2023-11-21T07:35:56;5.80;;;1.67;;
46014;SDS011;36844;51.898;-0.874;2023-11-21T07:38:22;4.53;;;2.80;;
46014;SDS011;36844;51.898;-0.874;2023-11-21T07:40:48;4.95;;;2.90;;
46014;SDS011;36844;51.898;-0.874;2023-11-21T07:43:13;6.60;;;3.75;;
46014;SDS011;36844;51.898;-0.874;2023-11-21T07:45:38;9.13;;;5.20;;
46014;SDS011;36844;51.898;-0.874;2023-11-21T07:48:04;17.35;;;5.30;;
46014;SDS011;36844;51.898;-0.874;2023-11-21T07:50:30;13.07;;;5.03;;
46014;SDS011;36844;51.898;-0.874;2023-11-21T07:52:56;7.18;;;4.90;;
46014;SDS011;36844;51.898;-0.874;2023-11-21T07:55:22;10.48;;;6.10;;
46014;SDS011;36844;51.898;-0.874;2023-11-21T07:57:48;11.38;;;5.32;;
46014;SDS011;36844;51.898;-0.874;2023-11-21T08:00:13;8.07;;;4.63;;
46014;SDS011;36844;51.898;-0.874;2023-11-21T08:02:40;11.73;;;5.05;;
46014;SDS011;36844;51.898;-0.874;2023-11-21T08:05:10;11.50;;;5.50;;
46014;SDS011;36844;51.898;-0.874;2023-11-21T08:07:37;6.63;;;4.03;;
46014;SDS011;36844;51.898;-0.874;2023-11-21T08:10:02;9.25;;;3.33;;
46014;SDS011;36844;51.898;-0.874;2023-11-21T08:12:29;5.53;;;2.92;;
46014;SDS011;36844;51.898;-0.874;2023-11-21T08:14:55;8.75;;;3.05;;
46014;SDS011;36844;51.898;-0.874;2023-11-21T08:17:20;10.85;;;3.17;;
46014;SDS011;36844;51.898;-0.874;2023-11-21T08:19:45;4.38;;;2.47;;
46014;SDS011;36844;51.898;-0.874;2023-11-21T08:22:14;7.90;;;2.63;;
46014;SDS011;36844;51.898;-0.874;2023-11-21T08:24:46;6.68;;;2.90;;
46014;SDS011;36844;51.898;-0.874;2023-11-21T08:27:11;5.68;;;1.98;;
46014;SDS011;36844;51.898;-0.874;2023-11-21T08:29:41;5.68;;;1.90;;
46014;SDS011;36844;51.898;-0.874;2023-11-21T08:32:07;3.95;;;1.48;;
46014;SDS011;36844;51.898;-0.874;2023-11-21T08:34:32;4.85;;;2.10;;
46014;SDS011;36844;51.898;-0.874;2023-11-21T08:36:58;9.48;;;1.60;;
46014;SDS011;36844;51.898;-0.874;2023-11-21T08:39:23;2.80;;;1.60;;
46014;SDS011;36844;51.898;-0.874;2023-11-21T08:41:49;11.20;;;2.33;;
46014;SDS011;36844;51.898;-0.874;2023-11-21T08:44:15;3.65;;;1.88;;
46014;SDS011;36844;51.898;-0.874;2023-11-21T08:46:43;4.35;;;1.40;;
46014;SDS011;36844;51.898;-0.874;2023-11-21T08:49:10;4.28;;;1.50;;
46014;SDS011;36844;51.898;-0.874;2023-11-21T08:51:36;4.18;;;1.10;;
46014;SDS011;36844;51.898;-0.874;2023-11-21T08:54:02;5.00;;;1.35;;
46014;SDS011;36844;51.898;-0.874;2023-11-21T08:56:29;3.70;;;1.30;;
46014;SDS011;36844;51.898;-0.874;2023-11-21T08:58:55;7.55;;;1.50;;
46014;SDS011;36844;51.898;-0.874;2023-11-21T09:01:20;6.28;;;1.08;;
46014;SDS011;36844;51.898;-0.874;2023-11-21T09:03:46;12.23;;;1.77;;
46014;SDS011;36844;51.898;-0.874;2023-11-21T09:06:12;4.18;;;1.00;;
46014;SDS011;36844;51.898;-0.874;2023-11-21T09:08:39;6.63;;;1.33;;
46014;SDS011;36844;51.898;-0.874;2023-11-21T09:11:04;5.72;;;1.10;;
46014;SDS011;36844;51.898;-0.874;2023-11-21T09:13:30;9.80;;;1.58;;
46014;SDS011;36844;51.898;-0.874;2023-11-21T09:15:55;10.07;;;1.58;;
46014;SDS011;36844;51.898;-0.874;2023-11-21T09:18:21;10.40;;;1.02;;
46014;SDS011;36844;51.898;-0.874;2023-11-21T09:20:46;5.72;;;1.20;;
46014;SDS011;36844;51.898;-0.874;2023-11-21T09:23:11;4.90;;;1.33;;
46014;SDS011;36844;51.898;-0.874;2023-11-21T09:25:37;7.95;;;1.08;;
46014;SDS011;36844;51.898;-0.874;2023-11-21T09:28:03;9.50;;;1.20;;
46014;SDS011;36844;51.898;-0.874;2023-11-21T09:30:33;3.25;;;1.20;;
46014;SDS011;36844;51.898;-0.874;2023-11-21T09:32:59;3.20;;;1.10;;
46014;SDS011;36844;51.898;-0.874;2023-11-21T09:35:25;5.30;;;1.02;;
46014;SDS011;36844;51.898;-0.874;2023-11-21T09:37:51;8.77;;;0.90;;
46014;SDS011;36844;51.898;-0.874;2023-11-21T09:40:18;4.20;;;0.80;;
46014;SDS011;36844;51.898;-0.874;2023-11-21T09:42:54;3.60;;;0.82;;
46014;SDS011;36844;51.898;-0.874;2023-11-21T09:45:25;4.57;;;1.40;;
46014;SDS011;36844;51.898;-0.874;2023-11-21T09:47:56;21.92;;;1.55;;
46014;SDS011;36844;51.898;-0.874;2023-11-21T09:50:22;4.30;;;1.27;;
46014;SDS011;36844;51.898;-0.874;2023-11-21T09:55:46;13.15;;;1.65;;
46014;SDS011;36844;51.898;-0.874;2023-11-21T09:58:13;5.85;;;1.60;;
46014;SDS011;36844;51.898;-0.874;2023-11-21T10:00:40;7.15;;;1.05;;
46014;SDS011;36844;51.898;-0.874;2023-11-21T10:03:06;6.45;;;0.93;;
46014;SDS011;36844;51.898;-0.874;2023-11-21T10:05:32;4.80;;;0.85;;
46014;SDS011;36844;51.898;-0.874;2023-11-21T10:07:59;2.75;;;0.90;;
46014;SDS011;36844;51.898;-0.874;2023-11-21T10:10:25;10.45;;;1.05;;
46014;SDS011;36844;51.898;-0.874;2023-11-21T10:12:54;5.95;;;0.98;;
46014;SDS011;36844;51.898;-0.874;2023-11-21T10:15:21;1.30;;;0.63;;
46014;SDS011;36844;51.898;-0.874;2023-11-21T10:17:48;5.97;;;0.80;;
46014;SDS011;36844;51.898;-0.874;2023-11-21T10:20:15;1.55;;;0.60;;
46014;SDS011;36844;51.898;-0.874;2023-11-21T10:22:41;3.17;;;0.63;;
46014;SDS011;36844;51.898;-0.874;2023-11-21T10:25:07;8.57;;;0.57;;
46014;SDS011;36844;51.898;-0.874;2023-11-21T10:27:36;1.38;;;0.55;;
46014;SDS011;36844;51.898;-0.874;2023-11-21T10:30:04;15.05;;;1.17;;
46014;SDS011;36844;51.898;-0.874;2023-11-21T10:32:30;10.20;;;1.00;;
46014;SDS011;36844;51.898;-0.874;2023-11-21T10:34:57;5.15;;;0.90;;
46014;SDS011;36844;51.898;-0.874;2023-11-21T10:37:25;5.13;;;0.75;;
46014;SDS011;36844;51.898;-0.874;2023-11-21T10:39:56;4.28;;;0.90;;
46014;SDS011;36844;51.898;-0.874;2023-11-21T10:42:23;2.70;;;0.43;;
46014;SDS011;36844;51.898;-0.874;2023-11-21T10:44:49;3.00;;;1.15;;
46014;SDS011;36844;51.898;-0.874;2023-11-21T10:47:15;1.75;;;0.60;;
46014;SDS011;36844;51.898;-0.874;2023-11-21T10:49:44;4.30;;;0.60;;
46014;SDS011;36844;51.898;-0.874;2023-11-21T10:52:12;6.60;;;0.63;;
46014;SDS011;36844;51.898;-0.874;2023-11-21T10:54:42;2.95;;;0.38;;
46014;SDS011;36844;51.898;-0.874;2023-11-21T10:57:10;11.35;;;0.88;;
46014;SDS011;36844;51.898;-0.874;2023-11-21T10:59:36;2.00;;;0.70;;
46014;SDS011;36844;51.898;-0.874;2023-11-21T11:02:02;4.38;;;0.70;;
46014;SDS011;36844;51.898;-0.874;2023-11-21T11:04:38;1.20;;;0.60;;
46014;SDS011;36844;51.898;-0.874;2023-11-21T11:07:04;3.35;;;0.80;;
46014;SDS011;36844;51.898;-0.874;2023-11-21T11:09:34;3.20;;;0.68;;
46014;SDS011;36844;51.898;-0.874;2023-11-21T11:12:01;9.85;;;0.90;;
46014;SDS011;36844;51.898;-0.874;2023-11-21T11:14:27;3.42;;;0.70;;
46014;SDS011;36844;51.898;-0.874;2023-11-21T11:16:54;1.15;;;0.47;;
46014;SDS011;36844;51.898;-0.874;2023-11-21T11:19:20;4.47;;;0.60;;
46014;SDS011;36844;51.898;-0.874;2023-11-21T11:27:20;1.20;;;0.98;;
46014;SDS011;36844;51.898;-0.874;2023-11-21T11:35:41;2.17;;;0.68;;
46014;SDS011;36844;51.898;-0.874;2023-11-21T11:38:16;0.85;;;0.70;;
46014;SDS011;36844;51.898;-0.874;2023-11-21T11:40:44;4.70;;;0.95;;
46014;SDS011;36844;51.898;-0.874;2023-11-21T11:43:11;2.30;;;0.43;;
46014;SDS011;36844;51.898;-0.874;2023-11-21T11:45:36;1.58;;;0.55;;
46014;SDS011;36844;51.898;-0.874;2023-11-21T11:48:06;3.10;;;0.55;;
46014;SDS011;36844;51.898;-0.874;2023-11-21T11:50:32;0.80;;;0.60;;
46014;SDS011;36844;51.898;-0.874;2023-11-21T11:53:11;2.33;;;0.70;;
46014;SDS011;36844;51.898;-0.874;2023-11-21T11:55:38;1.98;;;0.70;;
46014;SDS011;36844;51.898;-0.874;2023-11-21T11:58:05;1.20;;;0.60;;
46014;SDS011;36844;51.898;-0.874;2023-11-21T12:00:34;2.05;;;0.68;;
46014;SDS011;36844;51.898;-0.874;2023-11-21T12:03:05;5.45;;;0.80;;
46014;SDS011;36844;51.898;-0.874;2023-11-21T12:05:34;3.15;;;1.20;;
46014;SDS011;36844;51.898;-0.874;2023-11-21T12:08:04;5.82;;;1.40;;
46014;SDS011;36844;51.898;-0.874;2023-11-21T12:10:32;11.75;;;2.40;;
46014;SDS011;36844;51.898;-0.874;2023-11-21T12:13:10;6.80;;;2.17;;
46014;SDS011;36844;51.898;-0.874;2023-11-21T12:15:38;7.88;;;2.28;;
46014;SDS011;36844;51.898;-0.874;2023-11-21T12:18:05;9.45;;;2.67;;
46014;SDS011;36844;51.898;-0.874;2023-11-21T12:20:30;12.48;;;3.10;;
46014;SDS011;36844;51.898;-0.874;2023-11-21T12:23:03;15.52;;;4.30;;
46014;SDS011;36844;51.898;-0.874;2023-11-21T12:25:29;9.07;;;3.40;;
46014;SDS011;36844;51.898;-0.874;2023-11-21T12:27:59;12.07;;;3.28;;
46014;SDS011;36844;51.898;-0.874;2023-11-21T12:30:25;13.38;;;3.63;;
46014;SDS011;36844;51.898;-0.874;2023-11-21T12:35:26;8.50;;;1.98;;
46014;SDS011;36844;51.898;-0.874;2023-11-21T12:37:53;9.02;;;2.75;;
46014;SDS011;36844;51.898;-0.874;2023-11-21T12:40:20;7.15;;;2.10;;
46014;SDS011;36844;51.898;-0.874;2023-11-21T12:42:48;7.53;;;2.63;;
46014;SDS011;36844;51.898;-0.874;2023-11-21T12:47:45;6.80;;;1.90;;
46014;SDS011;36844;51.898;-0.874;2023-11-21T12:50:11;7.40;;;1.98;;
46014;SDS011;36844;51.898;-0.874;2023-11-21T12:52:43;5.13;;;1.40;;
46014;SDS011;36844;51.898;-0.874;2023-11-21T12:55:16;3.20;;;1.45;;
46014;SDS011;36844;51.898;-0.874;2023-11-21T12:57:47;4.47;;;1.38;;
46014;SDS011;36844;51.898;-0.874;2023-11-21T13:00:16;3.38;;;1.42;;
46014;SDS011;36844;51.898;-0.874;2023-11-21T13:02:52;2.83;;;1.10;;
46014;SDS011;36844;51.898;-0.874;2023-11-21T13:05:35;1.38;;;0.90;;
46014;SDS011;36844;51.898;-0.874;2023-11-21T13:08:07;2.75;;;1.15;;
46014;SDS011;36844;51.898;-0.874;2023-11-21T13:10:35;13.27;;;1.98;;
46014;SDS011;36844;51.898;-0.874;2023-11-21T13:13:05;14.18;;;1.80;;
46014;SDS011;36844;51.898;-0.874;2023-11-21T13:15:33;13.57;;;2.53;;
46014;SDS011;36844;51.898;-0.874;2023-11-21T13:18:00;9.45;;;2.53;;
46014;SDS011;36844;51.898;-0.874;2023-11-21T13:20:25;5.57;;;2.35;;
46014;SDS011;36844;51.898;-0.874;2023-11-21T13:22:54;4.65;;;2.25;;
46014;SDS011;36844;51.898;-0.874;2023-11-21T13:25:27;12.32;;;3.03;;
46014;SDS011;36844;51.898;-0.874;2023-11-21T13:27:57;4.95;;;1.98;;
46014;SDS011;36844;51.898;-0.874;2023-11-21T13:30:23;7.18;;;2.00;;
46014;SDS011;36844;51.898;-0.874;2023-11-21T13:33:02;7.70;;;2.33;;
46014;SDS011;36844;51.898;-0.874;2023-11-21T13:35:31;5.78;;;1.98;;
46014;SDS011;36844;51.898;-0.874;2023-11-21T13:38:03;8.98;;;2.38;;
46014;SDS011;36844;51.898;-0.874;2023-11-21T13:40:31;4.53;;;2.45;;
46014;SDS011;36844;51.898;-0.874;2023-11-21T13:42:59;9.05;;;3.03;;
46014;SDS011;36844;51.898;-0.874;2023-11-21T13:45:29;8.45;;;3.20;;
46014;SDS011;36844;51.898;-0.874;2023-11-21T13:47:54;7.22;;;3.63;;
46014;SDS011;36844;51.898;-0.874;2023-11-21T13:50:24;7.60;;;2.92;;
46014;SDS011;36844;51.898;-0.874;2023-11-21T13:52:55;5.40;;;2.85;;
46014;SDS011;36844;51.898;-0.874;2023-11-21T13:55:20;5.47;;;2.72;;
46014;SDS011;36844;51.898;-0.874;2023-11-21T13:57:49;6.90;;;2.70;;
46014;SDS011;36844;51.898;-0.874;2023-11-21T14:00:17;9.30;;;2.22;;
46014;SDS011;36844;51.898;-0.874;2023-11-21T14:03:01;9.13;;;2.25;;
46014;SDS011;36844;51.898;-0.874;2023-11-21T14:05:30;4.97;;;1.90;;
46014;SDS011;36844;51.898;-0.874;2023-11-21T14:07:57;4.22;;;2.28;;
46014;SDS011;36844;51.898;-0.874;2023-11-21T14:10:28;5.40;;;1.80;;
46014;SDS011;36844;51.898;-0.874;2023-11-21T14:13:02;6.80;;;2.25;;
46014;SDS011;36844;51.898;-0.874;2023-11-21T14:15:27;4.43;;;1.60;;
46014;SDS011;36844;51.898;-0.874;2023-11-21T14:17:54;3.58;;;1.80;;
46014;SDS011;36844;51.898;-0.874;2023-11-21T14:20:19;7.53;;;2.28;;
46014;SDS011;36844;51.898;-0.874;2023-11-21T14:22:46;7.70;;;1.27;;
46014;SDS011;36844;51.898;-0.874;2023-11-21T14:25:11;4.82;;;1.65;;
46014;SDS011;36844;51.898;-0.874;2023-11-21T14:27:37;3.90;;;1.77;;
46014;SDS011;36844;51.898;-0.874;2023-11-21T14:30:03;4.00;;;1.83;;
46014;SDS011;36844;51.898;-0.874;2023-11-21T14:32:30;2.63;;;1.48;;
46014;SDS011;36844;51.898;-0.874;2023-11-21T14:34:56;7.00;;;1.95;;
46014;SDS011;36844;51.898;-0.874;2023-11-21T14:37:21;6.05;;;1.45;;
46014;SDS011;36844;51.898;-0.874;2023-11-21T14:39:46;5.55;;;1.80;;
46014;SDS011;36844;51.898;-0.874;2023-11-21T14:42:14;6.60;;;1.48;;
46014;SDS011;36844;51.898;-0.874;2023-11-21T14:44:40;7.75;;;2.13;;
46014;SDS011;36844;51.898;-0.874;2023-11-21T14:47:07;9.95;;;3.28;;
46014;SDS011;36844;51.898;-0.874;2023-11-21T14:49:40;11.40;;;2.65;;